To NAV CANADA Home Page Login to a new session Search on AWWS site Feedback and Comments Disclaimer Vers la page française équivalente Tips FAQ What's new on the site To the Forecasts and Observations / NOTAM section To "File a Flight Plan" website Publications and other links Update of the User's profile FIC Telephone Numbers My Weather Data Folder Route Weather Data Regional Weather Data Local Weather Data To the Forecasts and Observations / NOTAM section
Request Generated 05/25/2015 at 00:59:07 UTC . Weather information available at that time is displayed.

METAR/TAF

NORTH BATTLEFORD/SK    (show WxCam)

SPECI CYQW 250055Z AUTO 09013KT 080V140 9SM VCTS SCT110 26/03 A2993
RMK SLP141 DENSITY ALT 3400FT=
SPECI CYQW 250051Z AUTO 11010G15KT 9SM SCT110 SCT130 26/02 A2993 RMK
WSHFT AT 0040Z SLP141 DENSITY ALT 3400FT=
SPECI CYQW 250025Z AUTO 19011G17KT 9SM BKN130 25/01 A2994 RMK SLP143
DENSITY ALT 3300FT=
SPECI CYQW 250008Z AUTO 18010G16KT 9SM VCTS BKN120 25/00 A2994 RMK
SLP143 DENSITY ALT 3300FT=
METAR CYQW 250000Z AUTO 20013KT 9SM BKN120 BKN140 25/00 A2994 RMK
SLP144 DENSITY ALT 3300FT=
SPECI CYQW 242354Z AUTO 20013KT 9SM BKN120 BKN140 25/01 A2994 RMK
WSHFT AT 2340Z SLP147 DENSITY ALT 3300FT=
METAR CYQW 242300Z AUTO VRB10G18KT 9SM SCT110 SCT130 27/M00 A2994 RMK
SLP144 DENSITY ALT 3500FT=
METAR CYQW 242200Z AUTO 05009G16KT 9SM CLR 27/01 A2995 RMK SLP146
DENSITY ALT 3400FT=

TAF AMD CYQW 250028Z 2500/2512 19012KT P6SM SCT100 TEMPO 2500/2504
BKN100
BECMG 2501/2503 VRB03KT
FM250400 VRB03KT P6SM FEW100
RMK FCST BASED ON AUTO OBS. NXT FCST BY 250600Z=
Your time UTC time
Weather data provided by Environment Canada and NAV CANADA